Marios Loizou

Recruteur - APOEL
20 Nov 2027
Samedi
Processus

Personnalité

Adaptabilité (7) Ambition (17) Controverse (19) Loyauté (12) Pression (4) Professionnalisme (7) Sportivité (20) Tempérament (13)

Profil

Style d'entraînement Démocratique
Diplôme National B
Détermination 12
Gestion des joueurs 12
Motivation 11
Discipline 6
Satisfaction professionnelle
100%
Fatigue
0%
Rôle Recruteur
Salaire 30.9K p/s
Contrat 14.03.2028

Performance

Comportement Bon
Efficacité de l'entraînement
45%
Développement des joueurs
40%
Prévention des blessures
25%
Mise en place tactique
65%

Événements récents

A évalué un joueur maintenant
A participé à une réunion de recrutement maintenant
A évalué un joueur maintenant
A participé à une réunion de recrutement 7j
A évalué un joueur 7j
A évalué un joueur 7j
A évalué un joueur 7j
A observé un match 7j

Suivi en cours

251
Joueur Club Statut Capacité Confiance Observé Dernière observation Dernier vote
Milton Giménez Defensa y Justicia Actif 133 / 120 40% 7 19.11.2027 -
Cristian Arango San Jose Earthquakes Actif 132 / 133 40% 3 19.11.2027 -
Brayan Moreno Banfield Actif 115 / 118 40% 1 19.11.2027 -
Facundo Castelli Estudiantes Actif 129 / 114 40% 3 18.11.2027 -
Jhonatan Candia Barracas Central Actif 125 / 118 40% 2 18.11.2027 -
Marco Miori Alvarado Actif 118 / 111 40% 3 17.11.2027 -
David Barbona Defensa y Justicia Actif 128 / 115 40% 4 17.11.2027 -
Alexis Cuello San Lorenzo Actif 124 / 130 40% 1 17.11.2027 -
Jonás Acevedo Instituto Actif 131 / 116 40% 2 15.11.2027 -
Enzo Avaro Mitre Actif 113 / 116 40% 2 15.11.2027 -
Yoshan Valois Lanús Actif 125 / 116 40% 2 15.11.2027 -
Nicolás Fernández Belgrano Actif 132 / 125 40% 5 12.11.2027 -
Carlos Gugenheim Almirante Brown Actif 117 / 120 40% 3 12.11.2027 -
Ignacio Ramírez Newell's Old Boys Actif 131 / 124 40% 2 10.11.2027 -
Kelvin Flórez Junior Actif 124 / 127 40% 4 10.11.2027 -
Nicolás Cordero Aldosivi Actif 120 / 111 40% 2 10.11.2027 -
Augusto Berrondo Tristán Suárez Actif 111 / 103 40% 4 09.11.2027 -
Lisandro Cabrera Maipú Actif 113 / 122 40% 3 09.11.2027 -
Franco Fagúndez Estudiantes Actif 126 / 124 40% 2 09.11.2027 -
Lucas Ríos Atlanta Actif 111 / 111 40% 5 08.11.2027 -
Joel Kojo Navbahor Actif 111 / 109 40% 3 08.11.2027 -
Jonathan Cañete Portuguesa Actif 110 / 107 40% 6 03.11.2027 -
Luca Martínez Dupuy Godoy Cruz Actif 122 / 120 40% 3 03.11.2027 -
Yegor Kortsov Dinamo Brest Actif 110 / 114 40% 5 02.11.2027 -
Bruno Barticciotto Talleres Actif 122 / 124 40% 3 02.11.2027 -
Mateo Bajamich Atlético Tucumán Actif 125 / 116 40% 3 01.11.2027 -
Adalberto Peñaranda Deportivo Tachira Actif 120 / 114 40% 4 31.10.2027 -
Jonatan Torres Cerro Porteno Actif 120 / 120 40% 3 30.10.2027 -
Marc Gual Kairat Actif 121 / 118 40% 1 30.10.2027 -
Daniel Sosah Aktobe Actif 112 / 106 40% 1 30.10.2027 -
Jhon Murillo America de Cali Actif 112 / 114 40% 4 29.10.2027 -
Shota Shekiladze Dila Actif 113 / 117 40% 1 29.10.2027 -
Alexander Díaz Deportivo Riestra Actif 115 / 123 40% 1 28.10.2027 -
Ramiro Ruiz Rodríguez Atlético Tucumán Actif 118 / 117 40% 2 23.10.2027 -
Gonzalo Flores Almirante Brown Actif 111 / 109 40% 7 22.10.2027 -
Fabricio Rojas Gimnasia y Tiro Actif 106 / 112 40% 2 22.10.2027 -
Tomás Fernández Aldosivi Actif 123 / 112 40% 1 22.10.2027 -
Facundo Pons San Martín Actif 104 / 110 40% 1 21.10.2027 -
Richard Celis Zamora Actif 116 / 111 40% 3 16.10.2027 -
Eric Ramírez Carabobo Actif 112 / 113 40% 1 16.10.2027 -
Marcelo Estigarribia Unión de Santa Fe Actif 127 / 128 40% 1 14.10.2027 -
Oscar Ferraresi Llaneros Actif 112 / 111 40% 6 13.10.2027 -
Tomás Chancalay Minnesota United FC Actif 130 / 136 40% 2 07.10.2027 -
Lautaro Gordillo Colegiales Actif 112 / 114 40% 3 06.10.2027 -
Tiziano Dornell Almagro Actif 119 / 122 40% 3 04.10.2027 -
Joel Ezra Enyimba Actif 97 / 102 40% 3 02.10.2027 -
Kauã Moraes Cruzeiro Actif 128 / 123 40% 1 02.10.2027 -
David Asayure Lokomotivi Actif 80 / 83 40% 2 30.09.2027 -
Dilan Villarreal Junior Actif 87 / 104 40% 1 30.09.2027 -
Colin Guske Orlando City Actif 93 / 95 40% 1 30.09.2027 -
Agustín Medina Lanús Actif 117 / 131 40% 4 28.09.2027 -
Braian Cabral Madryn Actif 95 / 90 40% 2 28.09.2027 -
Kaick FC Dallas Actif 103 / 104 40% 2 28.09.2027 -
Nicolás Sosa Racing Actif 116 / 118 40% 1 28.09.2027 -
Aiden Hezarkhani Real Salt Lake Actif 96 / 103 40% 2 27.09.2027 -
Adrian Gill Atlanta United FC Actif 86 / 88 40% 2 27.09.2027 -
Onyeuche Ujunwa Ikorodu City Actif 88 / 88 40% 1 27.09.2027 -
Gianluca Pugliese Güemes Actif 107 / 112 40% 2 26.09.2027 -
Fillip Jenssen Riise Stabaek Actif 90 / 112 40% 2 23.09.2027 -
Tyson Pearce St. Louis CITY SC Actif 88 / 96 40% 2 23.09.2027 -
Kenan Busuladžić Malmo FF Actif 120 / 116 40% 1 23.09.2027 -
Facundo Balatti Penarol Actif 109 / 104 40% 2 22.09.2027 -
Giorgos Katris Panathinaikos Actif 121 / 122 40% 1 22.09.2027 -
David Galiatsos Panetolikos Actif 86 / 97 40% 1 22.09.2027 -
Facundo Castro Nueva Chicago Actif 104 / 113 40% 4 20.09.2027 -
Aboubacar Meïté Afrique Foot Elite Actif 89 / 92 40% 1 17.09.2027 -
Felipe Obradovich Gimnasia La Plata Actif 114 / 108 40% 1 17.09.2027 -
Clemente Montes Universidad Catolica Actif 128 / 116 40% 5 15.09.2027 -
Nazareno Roselli Defensa y Justicia Actif 114 / 111 40% 2 14.09.2027 -
Azizbek To'lqinbekov Bunyodkor Actif 99 / 109 40% 1 14.09.2027 -
Camilo Rey Domenech Racing Club Actif 125 / 121 40% 1 12.09.2027 -
Gustavo Del Prete San Lorenzo Actif 123 / 118 40% 1 07.09.2027 -
Federico Girotti Alianza Lima Actif 133 / 125 40% 3 06.09.2027 -
Rubin Hebaj Tobol Actif 117 / 115 40% 1 06.09.2027 -
Marius Noubissi Pyunik Actif 119 / 122 40% 1 03.09.2027 -
Santiago Sala Güemes Actif 122 / 114 40% 1 02.09.2027 -
Thiago Calone All Boys Actif 124 / 112 40% 1 02.09.2027 -
Gladson Sulemana Liberty Professionals Actif 85 / 111 40% 3 31.08.2027 -
Christos Filis Olympiacos Actif 82 / 87 40% 1 31.08.2027 -
Santiago Espíndola River Plate Actif 109 / 122 40% 1 26.08.2027 -
Sheriff Amuda Shooting Stars Actif 80 / 87 40% 1 26.08.2027 -
Maxwell Azafokpe Inter Allies Actif 86 / 74 40% 3 25.08.2027 -
Mohamed Moussa Koïta Djoliba Actif 109 / 114 40% 1 25.08.2027 -
Ibrahim Sabiu Bendel Insurance Actif 85 / 100 40% 2 24.08.2027 -
Pedro Marques Apollon Actif 122 / 111 40% 2 23.08.2027 -
Nicolás Sosa Racing Perdu 113 / 117 40% 1 23.08.2027 -
Salvador Blopá Sporting CP Actif 120 / 124 40% 1 22.08.2027 -
Tiago Gordillo San Miguel Actif 90 / 103 40% 1 22.08.2027 -
Zach Abbott Nottingham Forest Actif 113 / 129 40% 1 22.08.2027 -
Dylan Gorosito Boca Juniors Actif 106 / 115 40% 2 21.08.2027 -
Matías Argüello Libertad Actif 105 / 112 40% 3 21.08.2027 -
Lautaro Ávila Racing Actif 89 / 93 40% 1 21.08.2027 -
Ollobergan Karimov Sogdiana Actif 90 / 92 40% 1 20.08.2027 -
Gift Isioma Warri Wolves Actif 87 / 79 40% 1 20.08.2027 -
Mattia Puzone Siracusa Actif 106 / 110 40% 1 20.08.2027 -
Lautaro Dufur Rentistas Actif 96 / 106 40% 1 19.08.2027 -
Alan Morinigo Olimpia Actif 115 / 110 40% 1 19.08.2027 -
Juan Cruz Cortazzo Gimnasia La Plata Actif 115 / 118 40% 1 18.08.2027 -
Bautista Mamousse Chacarita Juniors Actif 89 / 90 40% 1 18.08.2027 -
Nicolás Andereggen Ethnikos Achnas Actif 118 / 118 40% 1 16.08.2027 -
Nicolás Sosa Racing Perdu 113 / 111 40% 1 16.08.2027 -
Ravshan Xayrullayev Bukhara Actif 100 / 97 40% 1 13.08.2027 -
Tommaso Cecotti Carpi Actif 99 / 103 40% 4 12.08.2027 -
Pedro Mendes Modena Actif 128 / 125 40% 2 11.08.2027 -
Guillaume Furrer Lecco Actif 109 / 114 40% 1 11.08.2027 -
Carlos Gugenheim Almirante Brown Perdu 105 / 110 40% 1 11.08.2027 -
Alejandro Cantero Huesca Actif 121 / 118 40% 2 10.08.2027 -
Adham Farid ENPPI Actif 79 / 102 40% 1 10.08.2027 -
Julián Bazán Philadelphia Union Actif 111 / 119 40% 1 10.08.2027 -
Gastón Moreyra Almirante Brown Actif 108 / 115 40% 1 05.08.2027 -
Charalabos Charalabous Aris Actif 122 / 116 40% 1 05.08.2027 -
Romano Floriani Mussolini Parma Actif 127 / 128 40% 1 05.08.2027 -
Facundo Altamira Godoy Cruz Actif 115 / 128 40% 3 03.08.2027 -
Luther Singh AEL Actif 138 / 139 40% 1 03.08.2027 -
Emanuele Pecorino Catanzaro Actif 118 / 114 40% 1 03.08.2027 -
Ronan Hale Gillingham Actif 112 / 114 40% 1 03.08.2027 -
Andrea Franzoni Virtus Entella Actif 124 / 126 40% 4 01.08.2027 -
Naïs Djouahra Arouca Actif 136 / 128 40% 4 01.08.2027 -
Darwin Casseres Atletico Venezuela Actif 115 / 127 40% 1 01.08.2027 -
Luca Connell Barnsley Actif 121 / 115 40% 3 31.07.2027 -
Cameron Brannagan Oxford United Actif 129 / 119 40% 5 31.07.2027 -
Sérgio Conceição AEL Actif 124 / 123 40% 5 29.07.2027 -
Augusto Schott Talleres Actif 123 / 118 40% 1 29.07.2027 -
Kane Wilson Milton Keynes Dons Actif 112 / 119 40% 1 28.07.2027 -
Aldo Florenzi Cosenza Actif 121 / 124 40% 4 26.07.2027 -
David Lelle Aris Refusé 112 / 108 76% 1 26.07.2027 Refuser
Amine Bassi PAOK Actif 122 / 124 40% 1 26.07.2027 -
Giorgi Arabidze Torpedo Kutaisi Actif 122 / 120 40% 1 26.07.2027 -
Tobias Schättin Anorthosis Actif 114 / 122 40% 2 25.07.2027 -
Patricio Moyano Defensores Actif 115 / 119 40% 3 25.07.2027 -
Aaron Collins Milton Keynes Dons Actif 121 / 123 40% 4 24.07.2027 -
Ryan Wintle Milton Keynes Dons Actif 121 / 117 40% 3 23.07.2027 -
Jari Vandeputte Cremonese Actif 132 / 134 40% 2 23.07.2027 -
Samuel Lucero Defensa y Justicia Actif 110 / 129 40% 1 23.07.2027 -
Martin Kern Puskas Akademia Actif 97 / 107 40% 1 23.07.2027 -
Brandon Powell Blackburn Rovers Actif 111 / 125 40% 1 23.07.2027 -
Aaron Morley Wycombe Wanderers Actif 120 / 120 40% 1 23.07.2027 -
Perry Ng Cardiff City Actif 118 / 121 40% 2 22.07.2027 -
Facundo Castelli Estudiantes Perdu 114 / 120 40% 1 22.07.2027 -
Riley Owen Wycombe Wanderers Actif 111 / 113 40% 2 19.07.2027 -
Mihlali Mayambela Omonoia Actif 120 / 124 40% 4 19.07.2027 -
Manu Rodríguez Gijón Actif 110 / 108 40% 1 19.07.2027 -
Tommaso Barbieri Cremonese Actif 140 / 137 40% 1 19.07.2027 -
Julio Alonso Huesca Actif 125 / 119 40% 2 18.07.2027 -
Santiago Vera Almirante Brown Actif 110 / 107 40% 1 18.07.2027 -
Bjarki Bjarkason Südtirol Actif 122 / 121 40% 2 15.07.2027 -
Akinkunmi Amoo Najran Actif 132 / 128 40% 1 15.07.2027 -
Bruno Almeida AEL Actif 125 / 117 40% 2 14.07.2027 -
Lucas Fernandes Giresunspor Actif 120 / 115 40% 1 14.07.2027 -
Anderson Pafos Actif 116 / 111 40% 1 13.07.2027 -
Niccolò Squizzato Virtus Entella Actif 114 / 119 40% 1 13.07.2027 -
Simone Mazzocchi Cosenza Actif 116 / 116 40% 3 12.07.2027 -
Caolan Boyd-Munce Wycombe Wanderers Actif 115 / 114 40% 1 09.07.2027 -
Đorđe Ivanović AE Kition Actif 118 / 118 40% 4 08.07.2027 -
Hidde ter Avest Oxford United Actif 124 / 123 40% 1 08.07.2027 -
Aleš Matějů Spezia Actif 125 / 126 40% 1 08.07.2027 -
İsak Vural Pisa Actif 108 / 117 40% 1 08.07.2027 -
Victor Muriel Valledupar Actif 74 / 79 40% 1 08.07.2027 -
Zelimkhan Bakaev Lokomotiv Moscow Actif 120 / 125 40% 1 06.07.2027 -
Ewan Henderson Wycombe Wanderers Actif 119 / 119 40% 1 06.07.2027 -
Gaëtan Weissbeck Apollon Actif 124 / 122 40% 2 05.07.2027 -
Francesco Amatucci Cittadella Actif 125 / 122 40% 1 03.07.2027 -
Fred Onyedinma Barnsley Actif 112 / 121 40% 1 03.07.2027 -
Agustín Hausch Caracas Actif 118 / 118 40% 1 01.07.2027 -
Camillo Tavernelli Arezzo Actif 115 / 121 40% 3 30.06.2027 -
Nicolò Radaelli Mantova Actif 117 / 126 40% 1 30.06.2027 -
German Onugkha Rodina Refusé 124 / 122 40% 2 29.06.2027 Plus d'infos
Mikhail Ignatov Sochi Actif 115 / 117 40% 1 29.06.2027 -
Tino Kadewere Panathinaikos Actif 119 / 120 40% 1 29.06.2027 -
Chinedu Geoffrey Krylya Sovetov Actif 125 / 122 40% 1 28.06.2027 -
Ettore Gliozzi Mantova Actif 125 / 119 40% 4 27.06.2027 -
Tio Cipot NK Maribor Actif 120 / 119 40% 1 27.06.2027 -
Mômô Fanyé Touré Alashkert Actif 120 / 119 40% 1 25.06.2027 -
Moussa Koné Al-Ra'ed Actif 124 / 118 40% 1 23.06.2027 -
Bahlul Mammadov Inter Actif 118 / 117 40% 1 23.06.2027 -
Yegor Golenkov Rostov Actif 121 / 125 40% 1 22.06.2027 -
Ousmane Camara Sharjah Actif 115 / 121 40% 2 21.06.2027 -
Dani Escriche Apollon Actif 113 / 122 40% 2 19.06.2027 -
Leonardo Candellone Juve Stabia Actif 124 / 122 40% 2 19.06.2027 -
Silvio Merkaj Vicenza Actif 120 / 111 40% 2 18.06.2027 -
Alberto Cerri Cesena Actif 115 / 114 40% 2 17.06.2027 -
Jajá Pafos Actif 111 / 119 40% 1 15.06.2027 -
Denzel Jubitana Neftchi Actif 124 / 122 40% 1 15.06.2027 -
Jorginho Kairat Actif 124 / 117 40% 1 13.06.2027 -
Rafiki Saïd Wolverhampton Actif 115 / 124 40% 1 08.06.2027 -
Emmanuel Lomotey Ethnikos Achnas Refusé 121 / 124 76% 1 03.06.2027 Refuser
Nicola Mosti Catanzaro Actif 118 / 112 40% 1 30.05.2027 -
Nicolas Moumi Ngamaleu Pafos Actif 131 / 130 40% 2 27.05.2027 Plus d'infos
Mattia Zennaro Union Brescia Actif 109 / 107 40% 1 27.05.2027 -
Trezeguet Al-Riyadh Actif 133 / 128 40% 2 20.05.2027 -
Francesco Cassata Bari Actif 123 / 113 40% 1 20.05.2027 -
Fabio Gerli Modena Actif 129 / 120 40% 1 14.05.2027 -
Fabio Depaoli Sampdoria Actif 115 / 113 40% 1 14.05.2027 -
Florian Grillitsch Frosinone Actif 133 / 139 40% 2 13.05.2027 -
Georges-Kévin Nkoudou Al-Diriyah Actif 122 / 122 40% 2 13.05.2027 -
Paulo Azzi Modena Actif 121 / 121 40% 1 07.05.2027 -
Tunde AVS Actif 121 / 114 40% 2 04.05.2027 -
Alex Opoku Sarfo Aris Actif 111 / 122 40% 2 03.05.2027 -
Mattia Maita Benevento Actif 123 / 119 40% 1 01.05.2027 Plus d'infos
Jacopo Segre Palermo Actif 130 / 123 40% 1 28.04.2027 -
Emanuele Schimmenti Potenza Actif 109 / 109 40% 1 26.04.2027 -
Roberto Insigne Catania Actif 113 / 119 40% 2 20.04.2027 -
Tiago Mamede Portimonense Actif 115 / 106 40% 1 20.04.2027 -
Jordan Larsson Al-Ettifaq Actif 123 / 117 40% 3 17.04.2027 -
Emanuele Cicerelli Catania Actif 124 / 114 40% 1 15.04.2027 -
Gustavo Assunção Apollon Actif 117 / 117 40% 1 15.04.2027 -
Khalid Al-Ghannam Al-Ettifaq Actif 127 / 113 40% 1 06.04.2027 -
Martins Júnior Zira Actif 111 / 108 40% 1 06.04.2027 -
Doğucan Haspolat Westerlo Actif 120 / 127 40% 2 05.04.2027 -
Aschraf El Mahdioui Al-Taawoun Actif 135 / 121 40% 1 31.03.2027 -
Martin Kramarič Krylya Sovetov Actif 115 / 116 40% 1 31.03.2027 -
Liziero Nacional Actif 130 / 123 40% 1 28.03.2027 -
Konstantinos Balogiannis Apollon Actif 124 / 112 40% 1 28.03.2027 -
Teddy Okou Al-Riyadh Actif 112 / 107 40% 1 28.03.2027 -
Josh Brownhill Al-Shabab Actif 123 / 132 40% 1 26.03.2027 -
Muamer Tanković Omonoia Actif 114 / 110 40% 2 21.03.2027 -
Andreas Chrysostomou Anorthosis Actif 112 / 112 40% 1 21.03.2027 -
Surprise Manthosi Polokwane City Actif 100 / 91 40% 5 05.03.2027 -
Charalabos Erotokritou Doxa Actif 88 / 92 40% 2 03.03.2027 -
Jofre Torrents Ajax Actif 116 / 130 40% 3 02.03.2027 -
Andrey Ivlev Nizhniy Novgorod Actif 105 / 122 40% 1 02.03.2027 -
Jethro Medine Walsall Actif 91 / 99 40% 1 02.03.2027 -
Ronan Kpakio Brentford Actif 119 / 126 40% 1 28.02.2027 -
Matvey Kuznetsov Spartak Moscow Actif 72 / 79 40% 1 27.02.2027 -
Lucas Jetten Cambuur Actif 114 / 114 40% 1 26.02.2027 -
Edmund Inusah WAFA Actif 76 / 81 40% 1 26.02.2027 -
Martim Cunha Porto Actif 103 / 101 40% 1 20.02.2027 -
Moncef Zekri Sporting CP Actif 95 / 110 40% 1 17.02.2027 -
Vladislav Pospelov Baltika Actif 76 / 78 40% 1 16.02.2027 -
Taxiarchis Filon Levadiakos Actif 85 / 90 40% 3 12.02.2027 -
Daniel Kelly Derby County Actif 115 / 115 40% 2 11.02.2027 -
T-Jay Parfitt Cardiff City Actif 87 / 99 40% 1 11.02.2027 -
Toheeb Kosoko Umraniyespor Actif 79 / 92 40% 1 01.02.2027 -
Alpha Touré FC Metz Actif 108 / 118 40% 1 18.12.2026 -
Bedri Dunga PAOK Actif 75 / 81 40% 1 12.12.2026 -
Giorgos Konstantakopoulos Kifisia Actif 88 / 91 40% 1 09.12.2026 -
Reuell Walters Luton Town Actif 106 / 115 40% 3 03.11.2026 -
Sean Fusire Sheffield Wednesday Actif 105 / 108 40% 2 03.11.2026 -
Matías Gómez Valencia Actif 109 / 129 40% 1 03.11.2026 -
Ismaël Baouf Cambuur Actif 113 / 116 40% 1 02.11.2026 -
Mamadou Sané Aris Actif 91 / 105 40% 1 02.11.2026 -
Sebastián Flores Rayo Vallecano Actif 100 / 107 40% 1 31.10.2026 -
Martin Wober Mattersburg Actif 103 / 101 40% 1 27.10.2026 -
Sergio Martínez Real Madrid Actif 100 / 111 40% 1 19.10.2026 -
João Teixeira Porto Actif 100 / 109 40% 1 18.10.2026 -
Joachim Kayi Sanda Southampton Actif 105 / 120 40% 1 17.10.2026 -
Hugo Aviander GIF Sundsvall Actif 96 / 106 40% 1 17.10.2026 -
Kai Andrews Coventry City Actif 105 / 116 40% 1 14.10.2026 -
Stefan Džodić Almería Actif 106 / 111 40% 1 14.10.2026 -
Gift Udoh Ikorodu City Actif 93 / 82 40% 1 08.10.2026 -
Cathal McCarthy Hull City Actif 101 / 104 40% 1 04.08.2026 -